Alpujarra, Colombia

11:04 AM -05 on April 28, 2017 (GMT -0500)
Corpoica MAPA Ataco | | Change Station

Elev 3701 ft 3.29 °N, 75.60 °W | Updated 10 minutes ago

Rain
Rain
75.6 °F
Feels Like 77 °F
N
2.0
Wind Variable Wind from NNE
Gusts 4.0 mph

Today
High -- | Low -- °F
--% Chance of Precip.
Yesterday
High -- | Low -- °F
Precip. -- in
Pressure 29.99 in
Visibility 5.6 miles
Clouds Scattered Clouds 3000 ft
Mostly Cloudy 30000 ft
Heat Index 77 °F
Dew Point 65 °F
Humidity 70%
Rainfall 0.00 in
Snow Depth Not available.
5:54 AM 6:08 PM
Waxing Crescent, 7% visible
METAR SKCL 281600Z 19004KT 9000 SCT030 BKN300 28/21 A2999 RMK HZ
Pressure 29.99 in
Visibility 5.6 miles
Clouds Scattered Clouds 3000 ft
Mostly Cloudy 30000 ft
Heat Index 77 °F
Dew Point 65 °F
Humidity 70%
Rainfall 0.00 in
Snow Depth Not available.
5:54 AM 6:08 PM
Waxing Crescent, 7% visible
METAR SKCL 281600Z 19004KT 9000 SCT030 BKN300 28/21 A2999 RMK HZ

Get Severe Weather Alerts

Thanks for signing up!

Be on the lookout for a verification email in your inbox.

You'll start receiving the daily forecast at 8 AM.

×

10-Day Weather Forecast

No radar image for this location.
×

Almanac

Astronomy

Apr. 28, 2017 Rise Set
Actual Time
Civil Twilight
Nautical Twilight
Astronomical Twilight
Moon
Length of Visible Light
Length of Day
Tomorrow will be .
, % of the Moon is Illuminated

Today's Extremes

Country Highs Country Lows

Community

WunderPhotos

WunderBlog® & News

Nearby

Air Quality

  Air Quality AQ Index Pollutant
Not available.

Snow Depth

Station Depth Elevation

Earthquake Activity

City Distance Mag. Time & Date
Minimum magnitude displayed is 2.5.

Coastal Water Temperatures

Place Temperature

Stations

Nearby Weather Stations

Station Location Temp. Windchill Dew Point Humidity Wind Precip. Elev Updated Type